Suitland, Maryland
Current Conditions -  °F | °C
As of 5:58 AM on Friday 24 Oct 2014 (Local Time) from KADW Reporting Station
Clear Clear  
Wind Chill: 53°   Ceiling: Unl
Heat Index: 53°   Visibility: 10mi
Dew Point: 43°   Wind: 13mph
Humidity: 67%   Direction: 290°WNW
Pressure: 29.94"   Gusts: NA
Location:  38.85°N, 76.92°W
Report Text: KADW 240958Z AUTO 29011KT 10SM CLR 12/06 A2994 RMK AO2 SLP145 T01190060 $
Loading
Personal Weather Stations






























Interactive Weather Map
Tropical Storm Tracking
New forecast layout! Learn more

10-Day Weather Forecast

Advertisements
Track Severe Weather on mobile